createdAt,value
2022-10-17T00:00:02.217Z,18.20
2022-10-17T00:02:50.109Z,18.20
2022-10-17T00:05:43.746Z,18.20
2022-10-17T00:08:29.467Z,18.20
2022-10-17T00:11:20.931Z,18.30
2022-10-17T00:14:06.224Z,18.50
2022-10-17T00:16:51.582Z,18.50
2022-10-17T00:19:37.296Z,18.40
2022-10-17T00:22:22.692Z,18.10
2022-10-17T00:25:08.699Z,17.90
2022-10-17T00:27:53.998Z,18.00
2022-10-17T00:30:39.967Z,18.20
2022-10-17T00:33:27.371Z,18.40
2022-10-17T00:36:16.636Z,18.20
2022-10-17T00:39:02.360Z,17.80
2022-10-17T00:41:47.703Z,17.50
2022-10-17T00:44:33.121Z,17.20
2022-10-17T00:47:22.578Z,17.20
2022-10-17T00:50:09.090Z,17.50
2022-10-17T00:52:58.889Z,17.50
2022-10-17T00:55:52.998Z,17.20
2022-10-17T00:58:38.817Z,16.90
2022-10-17T01:01:24.328Z,16.90
2022-10-17T01:04:10.278Z,17.00
2022-10-17T01:06:58.241Z,17.10
2022-10-17T01:09:46.814Z,17.30
2022-10-17T01:13:00.393Z,17.80
2022-10-17T01:16:16.966Z,17.90
2022-10-17T01:19:13.759Z,17.60
2022-10-17T01:22:07.603Z,17.60
2022-10-17T01:25:29.256Z,17.70
2022-10-17T01:31:36.756Z,17.90
2022-10-17T01:34:41.254Z,18.00
2022-10-17T01:37:53.996Z,17.70
2022-10-17T01:40:51.040Z,17.70
2022-10-17T01:43:54.522Z,17.90
2022-10-17T01:46:44.318Z,18.00
2022-10-17T01:49:32.563Z,18.10
2022-10-17T01:52:27.077Z,18.20
2022-10-17T01:55:19.162Z,18.20
2022-10-17T01:58:16.691Z,18.20
2022-10-17T02:01:06.940Z,18.30
2022-10-17T02:03:53.620Z,18.30
2022-10-17T02:06:40.122Z,18.30
2022-10-17T02:09:31.152Z,18.20
2022-10-17T02:12:24.923Z,18.30
2022-10-17T02:15:16.943Z,18.20
2022-10-17T02:18:25.333Z,18.30
2022-10-17T02:21:50.452Z,18.10
2022-10-17T02:25:09.661Z,18.80
2022-10-17T02:28:07.514Z,18.00
2022-10-17T02:31:45.619Z,18.20
2022-10-17T02:34:40.610Z,18.10
2022-10-17T02:37:30.361Z,18.00
2022-10-17T02:40:21.072Z,17.80
2022-10-17T02:43:07.682Z,17.60
2022-10-17T02:45:54.551Z,17.60
2022-10-17T02:49:06.865Z,17.40
2022-10-17T02:52:04.050Z,17.40
2022-10-17T02:55:09.086Z,17.40
2022-10-17T02:58:00.184Z,17.40
2022-10-17T03:00:46.494Z,16.50
2022-10-17T03:03:34.011Z,17.30
2022-10-17T03:06:20.790Z,17.40
2022-10-17T03:09:06.468Z,17.30
2022-10-17T03:11:52.364Z,17.30
2022-10-17T03:14:38.184Z,17.30
2022-10-17T03:17:23.819Z,17.30
2022-10-17T03:20:10.042Z,17.20
2022-10-17T03:22:55.713Z,17.20
2022-10-17T03:25:41.258Z,17.20
2022-10-17T03:28:28.166Z,17.10
2022-10-17T03:31:16.487Z,17.10
2022-10-17T03:34:03.819Z,17.10
2022-10-17T03:36:49.611Z,16.90
2022-10-17T03:39:35.129Z,16.80
2022-10-17T03:42:21.364Z,16.70
2022-10-17T03:45:08.225Z,16.90
2022-10-17T03:47:54.188Z,16.90
2022-10-17T03:50:39.817Z,16.90
2022-10-17T03:53:27.332Z,16.90
2022-10-17T03:56:22.324Z,16.90
2022-10-17T03:59:16.303Z,16.90
2022-10-17T04:02:09.414Z,16.90
2022-10-17T04:04:54.910Z,16.90
2022-10-17T04:07:40.254Z,16.90
2022-10-17T04:10:26.130Z,16.80
2022-10-17T04:13:11.550Z,16.70
2022-10-17T04:16:06.428Z,16.60
2022-10-17T04:18:56.548Z,16.50
2022-10-17T04:21:44.003Z,16.50
2022-10-17T04:24:30.091Z,16.60
2022-10-17T04:27:28.068Z,16.50
2022-10-17T04:30:13.775Z,16.50
2022-10-17T04:33:00.380Z,16.50
2022-10-17T04:35:56.421Z,16.40
2022-10-17T04:38:42.425Z,16.40
2022-10-17T04:41:29.486Z,16.40
2022-10-17T04:44:14.907Z,16.30
2022-10-17T04:47:08.701Z,16.50
2022-10-17T04:49:54.274Z,16.50
2022-10-17T04:52:41.736Z,16.50
2022-10-17T04:55:28.295Z,16.60
2022-10-17T04:58:14.304Z,16.50
2022-10-17T05:00:59.989Z,16.40
2022-10-17T05:03:48.392Z,16.30
2022-10-17T05:06:34.786Z,16.30
2022-10-17T05:09:39.723Z,16.30
2022-10-17T05:12:26.242Z,16.30
2022-10-17T05:15:12.915Z,16.40
2022-10-17T05:17:59.766Z,16.40
2022-10-17T05:20:47.509Z,16.50
2022-10-17T05:23:33.523Z,16.50
2022-10-17T05:26:19.414Z,16.50
2022-10-17T05:29:05.638Z,16.50
2022-10-17T05:31:55.629Z,16.70
2022-10-17T05:34:42.230Z,16.80
2022-10-17T05:37:30.494Z,16.70
2022-10-17T05:40:16.154Z,16.80
2022-10-17T05:43:01.910Z,16.90
2022-10-17T05:45:47.403Z,16.90
2022-10-17T05:48:37.993Z,16.80
2022-10-17T05:51:24.045Z,16.90
2022-10-17T05:54:10.130Z,17.00
2022-10-17T05:56:56.285Z,16.80
2022-10-17T05:59:46.303Z,16.60
2022-10-17T06:02:35.616Z,16.80
2022-10-17T06:05:21.900Z,17.00
2022-10-17T06:08:07.989Z,17.00
2022-10-17T06:10:56.150Z,17.00
2022-10-17T06:13:41.881Z,17.10
2022-10-17T06:16:33.458Z,16.90
2022-10-17T06:19:19.483Z,16.60
2022-10-17T06:22:05.901Z,16.50
2022-10-17T06:24:53.715Z,16.90
2022-10-17T06:27:39.239Z,16.90
2022-10-17T06:30:25.451Z,16.10
2022-10-17T06:33:11.458Z,16.10
2022-10-17T06:35:57.348Z,16.30
2022-10-17T06:38:44.126Z,16.20
2022-10-17T06:41:54.047Z,16.10
2022-10-17T06:44:41.638Z,16.10
2022-10-17T06:47:46.315Z,15.80
2022-10-17T06:50:50.838Z,15.40
2022-10-17T06:53:41.173Z,15.50
2022-10-17T06:56:46.358Z,15.20
2022-10-17T06:59:37.974Z,15.00
2022-10-17T07:02:29.755Z,15.20
2022-10-17T07:05:19.759Z,15.00
2022-10-17T07:08:05.939Z,15.00
2022-10-17T07:10:51.905Z,15.10
2022-10-17T07:13:39.299Z,15.10
2022-10-17T07:16:26.080Z,15.20
2022-10-17T07:19:21.435Z,15.50
2022-10-17T07:22:08.499Z,15.70
2022-10-17T07:24:56.304Z,15.80
2022-10-17T07:28:02.180Z,16.10
2022-10-17T07:30:52.025Z,16.80
2022-10-17T07:33:41.197Z,17.40
2022-10-17T07:36:26.707Z,17.90
2022-10-17T07:39:13.529Z,18.30
2022-10-17T07:42:00.645Z,18.60
2022-10-17T07:44:47.456Z,19.70
2022-10-17T07:47:37.755Z,20.40
2022-10-17T07:50:26.523Z,19.30
2022-10-17T07:53:12.610Z,19.10
2022-10-17T07:55:58.820Z,19.40
2022-10-17T07:58:44.592Z,20.00
2022-10-17T08:01:30.578Z,20.20
2022-10-17T08:04:17.517Z,21.90
2022-10-17T08:07:19.572Z,22.20
2022-10-17T08:10:06.679Z,21.60
2022-10-17T08:12:52.543Z,22.00
2022-10-17T08:15:38.935Z,22.90
2022-10-17T08:18:27.270Z,22.20
2022-10-17T08:21:13.540Z,23.10
2022-10-17T08:23:59.484Z,23.60
2022-10-17T08:26:48.236Z,24.20
2022-10-17T08:29:35.246Z,23.90
2022-10-17T08:32:23.680Z,24.60
2022-10-17T08:35:10.171Z,23.70
2022-10-17T08:37:55.569Z,22.50
2022-10-17T08:40:42.874Z,23.30
2022-10-17T08:43:49.906Z,24.10
2022-10-17T08:46:39.738Z,22.80
2022-10-17T08:49:34.706Z,22.60
2022-10-17T08:52:32.139Z,22.70
2022-10-17T08:55:30.024Z,23.50
2022-10-17T08:58:19.538Z,21.90
2022-10-17T09:01:26.576Z,21.20
2022-10-17T09:04:19.310Z,21.20
2022-10-17T09:07:16.681Z,21.80
2022-10-17T09:10:30.042Z,22.30
2022-10-17T09:13:54.990Z,24.90
2022-10-17T09:16:48.563Z,24.90
2022-10-17T09:19:41.654Z,23.40
2022-10-17T09:22:37.144Z,25.20
2022-10-17T09:25:22.930Z,25.40
2022-10-17T09:28:33.896Z,26.10
2022-10-17T09:31:27.009Z,25.80
2022-10-17T09:34:13.053Z,27.00
2022-10-17T09:37:01.006Z,27.60
2022-10-17T09:39:46.797Z,28.30
2022-10-17T09:42:34.438Z,24.20
2022-10-17T09:45:26.151Z,24.80
2022-10-17T09:48:26.533Z,26.60
2022-10-17T09:51:21.876Z,26.50
2022-10-17T09:54:40.070Z,27.70
2022-10-17T09:57:26.517Z,27.10
2022-10-17T10:00:31.242Z,28.00
2022-10-17T10:03:28.048Z,27.10
2022-10-17T10:06:19.401Z,25.30
2022-10-17T10:09:06.970Z,23.60
2022-10-17T10:11:56.601Z,23.20
2022-10-17T10:14:45.180Z,22.00
2022-10-17T10:17:44.449Z,21.90
2022-10-17T10:20:38.032Z,22.30
2022-10-17T10:23:26.382Z,22.30
2022-10-17T10:26:27.508Z,22.30
2022-10-17T10:29:37.295Z,22.60
2022-10-17T10:32:34.825Z,22.00
2022-10-17T10:35:32.515Z,22.00
2022-10-17T10:38:21.197Z,21.80
2022-10-17T10:41:11.668Z,22.10
2022-10-17T10:43:57.831Z,22.00
2022-10-17T10:46:43.918Z,21.90
2022-10-17T10:49:31.586Z,21.80
2022-10-17T10:52:40.469Z,21.40
2022-10-17T10:55:31.042Z,21.30
2022-10-17T10:58:51.388Z,21.80
2022-10-17T11:01:51.571Z,21.60
2022-10-17T11:05:05.533Z,21.80
2022-10-17T11:07:56.363Z,20.90
2022-10-17T11:10:48.320Z,21.00
2022-10-17T11:14:13.050Z,21.40
2022-10-17T11:17:14.653Z,22.10
2022-10-17T11:20:07.595Z,22.50
2022-10-17T11:23:01.327Z,22.50
2022-10-17T11:25:50.170Z,22.10
2022-10-17T11:28:35.713Z,22.30
2022-10-17T11:31:24.751Z,22.50
2022-10-17T11:34:29.587Z,22.10
2022-10-17T11:37:23.460Z,22.50
2022-10-17T11:40:21.924Z,22.00
2022-10-17T11:43:44.062Z,21.80
2022-10-17T11:46:30.594Z,22.30
2022-10-17T11:49:22.091Z,22.40
2022-10-17T11:53:05.210Z,22.00
2022-10-17T11:55:43.547Z,22.00
2022-10-17T11:59:11.107Z,22.10
2022-10-17T12:02:04.426Z,22.00
2022-10-17T12:05:21.577Z,22.20
2022-10-17T12:08:50.913Z,22.50
2022-10-17T12:11:53.950Z,21.90
2022-10-17T12:14:47.406Z,21.80
2022-10-17T12:17:41.415Z,21.70
2022-10-17T12:20:36.531Z,21.70
2022-10-17T12:23:31.841Z,21.90
2022-10-17T12:26:26.885Z,22.40
2022-10-17T12:29:29.383Z,22.50
2022-10-17T12:32:16.043Z,22.90
2022-10-17T12:35:02.106Z,23.20
2022-10-17T12:37:58.558Z,23.30
2022-10-17T12:40:50.730Z,23.30
2022-10-17T12:46:59.466Z,22.80
2022-10-17T12:49:54.432Z,22.90
2022-10-17T12:52:42.498Z,23.10
2022-10-17T12:55:29.709Z,23.50
2022-10-17T12:58:16.972Z,23.20
2022-10-17T13:01:24.095Z,23.10
2022-10-17T13:04:10.924Z,22.90
2022-10-17T13:06:58.922Z,23.30
2022-10-17T13:09:45.665Z,23.80
2022-10-17T13:12:40.299Z,23.70
2022-10-17T13:15:29.551Z,23.90
2022-10-17T13:18:23.042Z,23.70
2022-10-17T13:21:16.446Z,23.70
2022-10-17T13:24:20.612Z,23.80
2022-10-17T13:27:29.056Z,23.80
2022-10-17T13:30:26.688Z,23.30
2022-10-17T13:33:48.073Z,23.10
2022-10-17T13:36:35.383Z,23.10
2022-10-17T13:39:38.264Z,23.30
2022-10-17T13:42:38.267Z,23.20
2022-10-17T13:45:36.873Z,22.90
2022-10-17T13:48:27.816Z,23.00
2022-10-17T13:51:13.846Z,23.40
2022-10-17T13:53:59.857Z,23.00
2022-10-17T13:56:46.055Z,23.20
2022-10-17T13:59:40.964Z,23.70
2022-10-17T14:02:32.017Z,23.50
2022-10-17T14:05:20.466Z,23.10
2022-10-17T14:08:20.456Z,23.10
2022-10-17T14:11:36.933Z,23.10
2022-10-17T14:14:26.300Z,23.30
2022-10-17T14:17:31.268Z,23.50
2022-10-17T14:23:38.129Z,23.80
2022-10-17T14:26:24.567Z,23.70
2022-10-17T14:29:25.695Z,22.80
2022-10-17T14:32:16.183Z,24.00
2022-10-17T14:35:24.410Z,23.50
2022-10-17T14:38:16.182Z,23.40
2022-10-17T14:41:37.857Z,23.30
2022-10-17T14:44:25.662Z,23.10
2022-10-17T14:47:42.203Z,23.70
2022-10-17T14:50:32.498Z,23.80
2022-10-17T14:53:18.474Z,24.10
2022-10-17T14:56:21.352Z,23.90
2022-10-17T14:59:11.775Z,23.40
2022-10-17T15:01:58.307Z,23.70
2022-10-17T15:04:44.558Z,23.40
2022-10-17T15:07:30.257Z,23.20
2022-10-17T15:10:43.100Z,23.30
2022-10-17T15:13:31.335Z,23.60
2022-10-17T15:16:23.059Z,23.40
2022-10-17T15:19:09.538Z,23.30
2022-10-17T15:21:55.503Z,23.20
2022-10-17T15:24:41.464Z,23.30
2022-10-17T15:27:26.794Z,23.20
2022-10-17T15:30:33.009Z,23.00
2022-10-17T15:33:18.779Z,22.90
2022-10-17T15:36:04.644Z,22.90
2022-10-17T15:38:56.407Z,22.90
2022-10-17T15:41:42.489Z,23.00
2022-10-17T15:44:29.279Z,23.10
2022-10-17T15:47:28.035Z,23.10
2022-10-17T15:50:15.899Z,23.10
2022-10-17T15:53:01.721Z,23.30
2022-10-17T15:55:50.860Z,23.10
2022-10-17T15:58:43.492Z,22.90
2022-10-17T16:01:31.434Z,23.00
2022-10-17T16:04:18.450Z,23.30
2022-10-17T16:07:03.953Z,23.20
2022-10-17T16:09:49.645Z,23.00
2022-10-17T16:12:41.104Z,22.70
2022-10-17T16:15:28.014Z,22.70
2022-10-17T16:18:14.492Z,22.70
2022-10-17T16:21:00.225Z,22.70
2022-10-17T16:23:45.773Z,22.70
2022-10-17T16:26:32.132Z,22.50
2022-10-17T16:29:17.764Z,22.30
2022-10-17T16:32:03.332Z,22.40
2022-10-17T16:34:48.882Z,22.40
2022-10-17T16:37:35.794Z,22.50
2022-10-17T16:40:21.483Z,22.70
2022-10-17T16:43:07.717Z,22.70
2022-10-17T16:45:53.399Z,22.50
2022-10-17T16:51:25.751Z,22.50
2022-10-17T16:54:11.344Z,22.50
2022-10-17T16:56:59.614Z,22.40
2022-10-17T16:59:45.224Z,22.40
2022-10-17T17:02:31.102Z,22.30
2022-10-17T17:05:17.527Z,22.30
2022-10-17T17:08:04.166Z,22.20
2022-10-17T17:10:51.091Z,22.20
2022-10-17T17:13:37.136Z,22.20
2022-10-17T17:16:24.214Z,22.40
2022-10-17T17:19:13.504Z,22.30
2022-10-17T17:24:59.468Z,22.30
2022-10-17T17:27:45.324Z,22.20
2022-10-17T17:30:30.906Z,22.10
2022-10-17T17:33:23.767Z,22.20
2022-10-17T17:36:13.949Z,22.00
2022-10-17T17:39:00.969Z,21.70
2022-10-17T17:41:46.678Z,21.70
2022-10-17T17:44:32.308Z,21.70
2022-10-17T17:47:18.496Z,21.60
2022-10-17T17:50:04.209Z,21.50
2022-10-17T17:52:51.143Z,21.40
2022-10-17T17:55:38.243Z,21.30
2022-10-17T17:58:23.599Z,21.30
2022-10-17T18:01:14.271Z,21.20
2022-10-17T18:04:00.930Z,21.10
2022-10-17T18:06:46.848Z,21.10
2022-10-17T18:09:32.902Z,21.00
2022-10-17T18:12:18.576Z,20.80
2022-10-17T18:15:05.321Z,20.80
2022-10-17T18:17:51.621Z,20.60
2022-10-17T18:20:43.314Z,20.60
2022-10-17T18:23:29.284Z,20.60
2022-10-17T18:26:15.633Z,20.60
2022-10-17T18:29:01.417Z,20.50
2022-10-17T18:31:47.035Z,20.40
2022-10-17T18:34:32.906Z,20.30
2022-10-17T18:37:18.514Z,20.20
2022-10-17T18:40:04.155Z,20.10
2022-10-17T18:42:49.429Z,20.10
2022-10-17T18:45:35.448Z,20.00
2022-10-17T18:48:21.378Z,20.00
2022-10-17T18:51:07.708Z,20.00
2022-10-17T18:53:56.454Z,19.90
2022-10-17T18:56:42.250Z,19.80
2022-10-17T18:59:28.197Z,19.90
2022-10-17T19:02:14.208Z,19.90
2022-10-17T19:05:00.436Z,20.00
2022-10-17T19:07:46.519Z,19.80
2022-10-17T19:10:37.570Z,19.70
2022-10-17T19:13:23.530Z,19.80
2022-10-17T19:16:15.007Z,19.80
2022-10-17T19:19:12.927Z,19.80
2022-10-17T19:22:00.189Z,19.60
2022-10-17T19:24:45.601Z,19.70
2022-10-17T19:27:31.734Z,19.60
2022-10-17T19:30:17.897Z,19.70
2022-10-17T19:33:03.569Z,19.60
2022-10-17T19:36:02.917Z,19.60
2022-10-17T19:38:48.978Z,19.50
2022-10-17T19:41:36.348Z,19.50
2022-10-17T19:44:22.872Z,19.50
2022-10-17T19:47:08.746Z,19.50
2022-10-17T19:49:54.447Z,19.40
2022-10-17T19:52:40.165Z,19.30
2022-10-17T19:55:25.786Z,19.30
2022-10-17T19:58:12.202Z,19.30
2022-10-17T20:01:01.115Z,19.30
2022-10-17T20:03:46.908Z,19.30
2022-10-17T20:06:33.847Z,19.20
2022-10-17T20:09:19.158Z,19.20
2022-10-17T20:12:04.895Z,19.20
2022-10-17T20:14:50.260Z,19.20
2022-10-17T20:17:35.924Z,19.30
2022-10-17T20:20:21.850Z,19.20
2022-10-17T20:23:07.371Z,19.00
2022-10-17T20:26:08.625Z,18.90
2022-10-17T20:29:08.840Z,19.00
2022-10-17T20:31:54.245Z,19.20
2022-10-17T20:34:40.247Z,19.20
2022-10-17T20:37:25.824Z,19.10
2022-10-17T20:43:18.080Z,19.00
2022-10-17T20:46:21.976Z,18.80
2022-10-17T20:49:13.019Z,18.90
2022-10-17T20:52:00.609Z,19.10
2022-10-17T20:54:47.255Z,19.00
2022-10-17T20:57:33.036Z,19.00
2022-10-17T21:00:20.210Z,18.90
2022-10-17T21:03:06.410Z,18.90
2022-10-17T21:05:52.117Z,19.00
2022-10-17T21:08:37.801Z,18.90
2022-10-17T21:11:27.628Z,18.90
2022-10-17T21:14:13.344Z,18.80
2022-10-17T21:17:04.988Z,18.70
2022-10-17T21:19:50.779Z,18.70
2022-10-17T21:22:36.398Z,18.70
2022-10-17T21:25:21.901Z,18.70
2022-10-17T21:28:07.341Z,18.70
2022-10-17T21:30:55.723Z,18.60
2022-10-17T21:33:42.340Z,18.70
2022-10-17T21:36:28.638Z,18.70
2022-10-17T21:39:15.489Z,18.60
2022-10-17T21:42:01.384Z,18.60
2022-10-17T21:44:47.304Z,18.70
2022-10-17T21:47:34.516Z,18.70
2022-10-17T21:50:21.916Z,18.70
2022-10-17T21:53:07.489Z,18.50
2022-10-17T21:55:53.347Z,18.50
2022-10-17T21:58:39.017Z,18.40
2022-10-17T22:01:31.040Z,18.30
2022-10-17T22:04:18.469Z,18.40
2022-10-17T22:07:04.306Z,18.40
2022-10-17T22:09:49.680Z,18.50
2022-10-17T22:12:35.212Z,18.40
2022-10-17T22:15:21.040Z,18.40
2022-10-17T22:18:06.620Z,17.50
2022-10-17T22:20:51.977Z,18.40
2022-10-17T22:23:38.332Z,18.40
2022-10-17T22:26:24.344Z,18.40
2022-10-17T22:29:10.715Z,18.40
2022-10-17T22:31:56.603Z,18.40
2022-10-17T22:34:42.309Z,18.20
2022-10-17T22:37:28.989Z,18.20
2022-10-17T22:40:14.896Z,18.90
2022-10-17T22:43:02.924Z,18.20
2022-10-17T22:45:56.275Z,18.20
2022-10-17T22:48:41.874Z,18.10
2022-10-17T22:51:27.316Z,18.10
2022-10-17T22:54:13.130Z,18.00
2022-10-17T22:56:58.668Z,18.10
2022-10-17T22:59:44.421Z,18.10
2022-10-17T23:02:29.919Z,17.90
2022-10-17T23:05:15.669Z,18.00
2022-10-17T23:08:01.404Z,18.20
2022-10-17T23:10:47.620Z,18.20
2022-10-17T23:13:33.723Z,18.00
2022-10-17T23:16:19.333Z,18.10
2022-10-17T23:19:05.004Z,18.10
2022-10-17T23:21:51.249Z,18.10
2022-10-17T23:24:36.815Z,18.20
2022-10-17T23:27:22.585Z,17.90
2022-10-17T23:30:08.517Z,17.90
2022-10-17T23:32:54.040Z,18.00
2022-10-17T23:35:40.763Z,18.10
2022-10-17T23:38:26.161Z,18.10
2022-10-17T23:41:12.632Z,18.10
2022-10-17T23:43:58.173Z,17.90
2022-10-17T23:46:43.748Z,17.90
2022-10-17T23:49:29.392Z,17.90
2022-10-17T23:52:16.191Z,17.90
2022-10-17T23:55:02.219Z,17.90
2022-10-17T23:57:48.205Z,17.90
